createdAt,value
2018-02-07T18:09:06.407Z,19.50
2018-02-07T18:11:35.679Z,22.50
2018-02-07T18:14:03.948Z,22.50
2018-02-07T18:16:31.566Z,23.80
2018-02-07T18:18:59.112Z,24.80
2018-02-07T18:21:27.782Z,26.30
2018-02-07T18:23:55.772Z,26.20
2018-02-07T18:26:24.359Z,26.70
2018-02-07T18:28:52.236Z,26.50
2018-02-07T18:31:19.746Z,24.80
2018-02-07T18:33:48.012Z,23.00
2018-02-07T18:36:16.284Z,22.00
2018-02-07T18:38:43.881Z,21.90
2018-02-07T18:41:11.472Z,21.20
2018-02-07T18:43:40.466Z,20.80
2018-02-07T18:46:08.038Z,20.50
2018-02-07T18:48:35.521Z,20.20
2018-02-07T18:51:03.789Z,20.00
2018-02-07T18:53:32.059Z,20.00
2018-02-07T18:55:59.576Z,19.90
2018-02-07T18:58:27.081Z,19.90
2018-02-07T19:00:54.676Z,20.20
2018-02-07T19:03:22.250Z,20.70
2018-02-07T19:05:49.752Z,21.60
2018-02-07T19:08:17.260Z,22.30
2018-02-07T19:10:44.800Z,22.70
2018-02-07T19:13:13.101Z,23.60
2018-02-07T19:15:40.697Z,23.50
2018-02-07T19:18:08.257Z,23.60
2018-02-07T19:20:35.747Z,23.80
2018-02-07T19:23:03.242Z,23.90
2018-02-07T19:25:31.037Z,25.10
2018-02-07T19:27:58.529Z,27.90
2018-02-07T19:30:26.060Z,30.10
2018-02-07T19:32:53.635Z,31.70
2018-02-07T19:35:21.253Z,32.70
2018-02-07T19:37:48.756Z,33.50
2018-02-07T19:40:17.014Z,34.50
2018-02-07T19:42:45.770Z,34.40
2018-02-07T19:45:13.285Z,34.90
2018-02-07T19:47:41.590Z,35.70
2018-02-07T19:50:09.557Z,35.70
2018-02-07T19:52:37.179Z,36.10
2018-02-07T19:55:05.499Z,35.90
2018-02-07T19:57:33.034Z,35.80
2018-02-07T20:00:01.298Z,36.30
2018-02-07T20:02:29.547Z,36.50
2018-02-07T20:04:57.028Z,36.40
2018-02-07T20:07:24.549Z,36.70
2018-02-07T20:09:52.059Z,36.80
2018-02-07T20:12:19.582Z,37.00
2018-02-07T20:14:47.863Z,37.20
2018-02-07T20:17:16.121Z,37.40
2018-02-07T20:19:43.657Z,37.30
2018-02-07T20:22:11.156Z,37.40
2018-02-07T20:24:39.520Z,37.40
2018-02-07T20:27:07.111Z,37.40
2018-02-07T20:29:34.605Z,33.50
2018-02-07T20:32:02.120Z,30.60
2018-02-07T20:34:30.361Z,27.90
2018-02-07T20:36:57.943Z,27.80
2018-02-07T20:39:25.477Z,27.30
2018-02-07T20:41:53.274Z,26.60
2018-02-07T20:44:20.741Z,25.90
2018-02-07T20:46:48.235Z,26.70
2018-02-07T20:49:15.731Z,27.70
2018-02-07T20:51:43.977Z,27.00
2018-02-07T20:54:11.614Z,27.00
2018-02-07T20:56:39.153Z,26.50
2018-02-07T20:59:06.684Z,25.90
2018-02-07T21:01:34.173Z,25.30
2018-02-07T21:04:01.713Z,24.80
2018-02-07T21:06:30.023Z,24.30
2018-02-07T21:08:57.555Z,23.80
2018-02-07T21:11:25.068Z,23.50
2018-02-07T21:13:52.642Z,23.00
2018-02-07T21:16:20.134Z,22.70
2018-02-07T21:18:47.628Z,22.30
2018-02-07T21:21:15.580Z,22.00
2018-02-07T21:23:43.081Z,21.70
2018-02-07T21:26:11.396Z,21.10
2018-02-07T21:28:39.682Z,20.80
2018-02-07T21:31:07.286Z,20.80
2018-02-07T21:33:35.554Z,20.40
2018-02-07T21:36:03.387Z,20.30
2018-02-07T21:38:30.905Z,20.10
2018-02-07T21:40:59.273Z,19.80
2018-02-07T21:43:26.814Z,19.70
2018-02-07T21:45:54.338Z,19.60
2018-02-07T21:48:21.839Z,19.40
2018-02-07T21:50:49.706Z,19.30
2018-02-07T21:53:17.457Z,19.10
2018-02-07T21:55:45.015Z,19.00
2018-02-07T21:58:12.627Z,18.80
2018-02-07T22:00:40.203Z,18.70
2018-02-07T22:03:07.695Z,18.60
2018-02-07T22:05:35.533Z,18.50
2018-02-07T22:08:03.076Z,18.50
2018-02-07T22:10:30.599Z,18.30
2018-02-07T22:12:58.842Z,18.20
2018-02-07T22:15:26.490Z,18.20
2018-02-07T22:17:53.940Z,18.10
2018-02-07T22:20:21.915Z,18.00
2018-02-07T22:22:49.617Z,17.90
2018-02-07T22:25:17.344Z,17.90
2018-02-07T22:27:45.194Z,17.80
2018-02-07T22:30:13.061Z,17.80
2018-02-07T22:32:40.618Z,17.70
2018-02-07T22:35:08.488Z,17.60
2018-02-07T22:37:37.085Z,17.50
2018-02-07T22:40:04.564Z,17.50
2018-02-07T22:42:32.038Z,17.50
2018-02-07T22:45:00.325Z,17.40
2018-02-07T22:47:28.646Z,17.30
2018-02-07T22:49:56.366Z,17.30
2018-02-07T22:52:24.177Z,17.30
2018-02-07T22:54:51.812Z,17.20
2018-02-07T22:57:19.451Z,17.20
2018-02-07T22:59:47.784Z,17.10
2018-02-07T23:02:15.274Z,17.10
2018-02-07T23:04:43.515Z,17.00
2018-02-07T23:07:11.010Z,17.00
2018-02-07T23:09:39.374Z,17.00
2018-02-07T23:12:06.890Z,16.90
2018-02-07T23:14:34.478Z,16.90
2018-02-07T23:17:02.039Z,16.90
2018-02-07T23:19:30.333Z,16.80
2018-02-07T23:21:58.586Z,16.80
2018-02-07T23:24:26.140Z,16.70
2018-02-07T23:26:53.697Z,16.70
2018-02-07T23:29:21.197Z,16.70
2018-02-07T23:31:48.853Z,16.70
2018-02-07T23:34:17.153Z,16.60
2018-02-07T23:36:44.713Z,16.60
2018-02-07T23:39:12.991Z,16.60
2018-02-07T23:41:40.489Z,16.50
2018-02-07T23:44:07.983Z,16.60
2018-02-07T23:46:35.470Z,16.50
2018-02-07T23:49:02.969Z,16.50
2018-02-07T23:51:30.966Z,16.50
2018-02-07T23:53:59.382Z,16.40
2018-02-07T23:56:27.032Z,16.40
2018-02-07T23:58:54.724Z,16.40
